Time;durP1;ratioP1;P1;durP2;ratioP2;P2;SDS_P1;SDS_P2;PMS_P1;PMS_P2;Temp;Humidity;BMP_temperature;BMP_pressure;BME280_temperature;BME280_humidity;BME280_pressure;Samples;Min_cycle;Max_cycle;Signal;HPM_P1;HPM_P2
2022/04/29 00:00:18;;;;;;;18.27;10.48;;;11.20;99.90;;;;;;5074125;28;20223;-81
2022/04/29 00:03:08;;;;;;;17.45;11.10;;;11.10;99.90;;;;;;5076227;28;20224;-81
2022/04/29 00:05:57;;;;;;;19.48;10.38;;;11.10;99.90;;;;;;5072887;28;20223;-81
2022/04/29 00:08:48;;;;;;;15.57;10.77;;;11.00;99.90;;;;;;5067968;28;20216;-82
2022/04/29 00:11:37;;;;;;;20.75;10.55;;;11.10;99.90;;;;;;5058384;28;20281;-83
2022/04/29 00:14:27;;;;;;;15.93;9.77;;;11.10;99.90;;;;;;5041752;28;20652;-79
2022/04/29 00:17:16;;;;;;;18.92;10.43;;;11.10;99.90;;;;;;5068342;28;20232;-81
2022/04/29 00:20:07;;;;;;;17.27;10.30;;;11.10;99.90;;;;;;5070490;28;20216;-82
2022/04/29 00:22:56;;;;;;;21.63;10.25;;;11.00;99.90;;;;;;5091688;28;20215;-81
2022/04/29 00:25:46;;;;;;;17.70;10.80;;;11.00;99.90;;;;;;5077819;28;20212;-81
2022/04/29 00:28:35;;;;;;;14.13;9.82;;;11.00;99.90;;;;;;5059810;28;20224;-80
2022/04/29 00:31:24;;;;;;;16.73;10.43;;;11.00;99.90;;;;;;5072826;28;20255;-82
2022/04/29 00:34:14;;;;;;;18.00;10.70;;;10.90;99.90;;;;;;5073619;28;20227;-83
2022/04/29 00:37:03;;;;;;;17.65;10.43;;;10.90;99.90;;;;;;5067858;28;20208;-83
2022/04/29 00:39:52;;;;;;;16.90;10.25;;;10.90;99.90;;;;;;5071553;28;21196;-85
2022/04/29 00:42:43;;;;;;;18.77;10.60;;;11.00;99.90;;;;;;5061196;28;20220;-82
2022/04/29 00:45:33;;;;;;;16.85;10.27;;;10.90;99.90;;;;;;5075860;28;20299;-85
2022/04/29 00:48:22;;;;;;;19.83;10.35;;;10.90;99.90;;;;;;5071015;28;20224;-84
2022/04/29 00:51:11;;;;;;;18.02;10.63;;;10.90;99.90;;;;;;5072555;28;20285;-86
2022/04/29 00:54:03;;;;;;;16.20;10.38;;;10.80;99.90;;;;;;5076172;28;20215;-83
2022/04/29 00:56:54;;;;;;;14.95;9.98;;;10.70;99.90;;;;;;5071250;28;20216;-83
2022/04/29 00:59:50;;;;;;;18.33;10.95;;;10.70;99.90;;;;;;5075932;28;20316;-86
2022/04/29 01:02:41;;;;;;;14.43;10.40;;;10.80;99.90;;;;;;5074901;28;20273;-84
2022/04/29 01:05:33;;;;;;;28.55;11.07;;;10.80;99.90;;;;;;5071350;28;20229;-81
2022/04/29 01:08:22;;;;;;;17.70;11.18;;;10.70;99.90;;;;;;5073411;28;20231;-81
2022/04/29 01:11:12;;;;;;;16.90;10.63;;;10.80;99.90;;;;;;5077010;28;20243;-81
2022/04/29 01:14:01;;;;;;;16.65;11.02;;;10.80;99.90;;;;;;5087877;28;20315;-87
2022/04/29 01:16:51;;;;;;;20.50;10.93;;;10.70;99.90;;;;;;5066704;28;20379;-83
2022/04/29 01:19:41;;;;;;;14.60;10.43;;;10.70;99.90;;;;;;5077922;28;20227;-82
2022/04/29 01:22:33;;;;;;;19.90;10.43;;;10.70;99.90;;;;;;5061388;28;20228;-82
2022/04/29 01:25:23;;;;;;;14.95;9.45;;;10.70;99.90;;;;;;5070169;28;20220;-80
2022/04/29 01:28:15;;;;;;;19.52;9.95;;;10.70;99.90;;;;;;5065904;28;20286;-83
2022/04/29 01:31:06;;;;;;;19.48;10.93;;;10.70;99.90;;;;;;5052907;28;20879;-83
2022/04/29 01:33:56;;;;;;;14.27;9.55;;;10.60;99.90;;;;;;5069840;28;20468;-81
2022/04/29 01:36:45;;;;;;;15.25;10.30;;;10.60;99.90;;;;;;5074014;28;20365;-84
2022/04/29 01:39:36;;;;;;;16.23;9.90;;;10.70;99.90;;;;;;5072906;28;20242;-81
2022/04/29 01:42:26;;;;;;;16.25;10.43;;;10.60;99.90;;;;;;5073046;28;20306;-83
2022/04/29 01:45:15;;;;;;;13.85;9.40;;;10.50;99.90;;;;;;5073143;28;20208;-84
2022/04/29 01:48:15;;;;;;;15.02;10.23;;;10.50;99.90;;;;;;5069739;28;20248;-87
2022/04/29 01:51:10;;;;;;;13.93;9.43;;;10.50;99.90;;;;;;5062618;28;20595;-82
2022/04/29 01:54:00;;;;;;;14.43;8.63;;;10.40;99.90;;;;;;5064864;28;20269;-81
2022/04/29 01:56:52;;;;;;;12.23;8.88;;;10.50;99.90;;;;;;5063267;28;20310;-80
2022/04/29 01:59:42;;;;;;;12.30;8.68;;;10.40;99.90;;;;;;5078720;28;20220;-80
2022/04/29 02:02:37;;;;;;;11.65;8.30;;;10.40;99.90;;;;;;5070896;28;20225;-82
2022/04/29 02:05:27;;;;;;;13.05;8.18;;;10.40;99.90;;;;;;5082454;28;20219;-82
2022/04/29 02:08:16;;;;;;;14.07;8.32;;;10.50;99.90;;;;;;5072008;28;20246;-85
2022/04/29 02:11:06;;;;;;;14.88;8.63;;;10.40;99.90;;;;;;5066928;28;20256;-82
2022/04/29 02:13:57;;;;;;;12.20;8.43;;;10.40;99.90;;;;;;5079897;28;20224;-80
2022/04/29 02:17:12;;;;;;;13.02;8.38;;;10.40;99.90;;;;;;5065122;28;20220;-80
2022/04/29 02:20:02;;;;;;;12.82;8.50;;;10.40;99.90;;;;;;5068282;28;20255;-82
2022/04/29 02:22:52;;;;;;;15.18;8.73;;;10.30;99.90;;;;;;5065558;28;20323;-81
2022/04/29 02:25:41;;;;;;;14.10;8.55;;;10.30;99.90;;;;;;5068404;28;20575;-80
2022/04/29 02:28:32;;;;;;;13.32;8.93;;;10.30;99.90;;;;;;5071584;28;20231;-85
2022/04/29 02:31:24;;;;;;;13.80;8.77;;;10.30;99.90;;;;;;5071488;28;20707;-82
2022/04/29 02:34:13;;;;;;;13.32;9.15;;;10.40;99.90;;;;;;5060262;28;20216;-80
2022/04/29 02:37:02;;;;;;;14.52;8.93;;;10.40;99.90;;;;;;5085970;28;20255;-79
2022/04/29 02:39:51;;;;;;;15.90;9.70;;;10.30;99.90;;;;;;5086869;28;20265;-79
2022/04/29 02:42:41;;;;;;;14.55;9.43;;;10.30;99.90;;;;;;5068360;28;20261;-80
2022/04/29 02:45:30;;;;;;;13.40;9.32;;;10.30;99.90;;;;;;5069684;28;20240;-79
2022/04/29 02:48:21;;;;;;;16.42;9.63;;;10.30;99.90;;;;;;5066136;28;20219;-82
2022/04/29 02:51:10;;;;;;;13.25;9.27;;;10.30;99.90;;;;;;5063599;28;20251;-79
2022/04/29 02:53:59;;;;;;;14.32;9.45;;;10.30;99.90;;;;;;5077115;28;20274;-82
2022/04/29 02:56:50;;;;;;;18.15;9.77;;;10.30;99.90;;;;;;5068021;28;20615;-78
2022/04/29 02:59:53;;;;;;;16.23;8.70;;;10.30;99.90;;;;;;5066072;28;20725;-83
2022/04/29 03:02:41;;;;;;;17.33;9.60;;;10.30;99.90;;;;;;5064398;28;20221;-81
2022/04/29 03:05:32;;;;;;;15.85;9.13;;;10.40;99.90;;;;;;5060699;28;20243;-85
2022/04/29 03:08:21;;;;;;;11.68;8.48;;;10.30;99.90;;;;;;5066926;28;20220;-85
2022/04/29 03:11:11;;;;;;;17.23;8.70;;;10.30;99.90;;;;;;5078605;28;20858;-83
2022/04/29 03:14:00;;;;;;;12.02;8.75;;;10.40;99.90;;;;;;5084848;28;20605;-82
2022/04/29 03:16:50;;;;;;;14.70;8.98;;;10.30;99.90;;;;;;5066167;28;20226;-83
2022/04/29 03:19:39;;;;;;;14.40;8.80;;;10.30;99.90;;;;;;5067119;28;20305;-82
2022/04/29 03:22:30;;;;;;;13.73;8.75;;;10.30;99.90;;;;;;5059866;28;20760;-81
2022/04/29 03:25:19;;;;;;;12.00;8.48;;;10.30;99.90;;;;;;5045610;28;20224;-85
2022/04/29 03:28:08;;;;;;;15.45;9.18;;;10.30;99.90;;;;;;5076257;28;20216;-83
2022/04/29 03:30:59;;;;;;;13.52;9.00;;;10.30;99.90;;;;;;5068918;28;20223;-79
2022/04/29 03:34:07;;;;;;;13.23;7.90;;;10.30;99.90;;;;;;5066573;28;20212;-79
2022/04/29 03:36:56;;;;;;;14.05;8.38;;;10.30;99.90;;;;;;5092867;28;20753;-81
2022/04/29 03:39:46;;;;;;;13.35;7.97;;;10.30;99.90;;;;;;5093130;28;20212;-80
2022/04/29 03:42:36;;;;;;;13.60;9.00;;;10.30;99.90;;;;;;5083333;28;21231;-81
2022/04/29 03:45:26;;;;;;;13.75;9.32;;;10.40;99.90;;;;;;5088140;28;20234;-80
2022/04/29 03:48:17;;;;;;;16.38;9.40;;;10.40;99.90;;;;;;5075194;28;20341;-81
2022/04/29 03:51:28;;;;;;;17.55;10.30;;;10.30;99.90;;;;;;5070336;28;20223;-80
2022/04/29 03:54:17;;;;;;;16.20;10.85;;;10.40;99.90;;;;;;5061745;28;20220;-80
2022/04/29 03:57:16;;;;;;;19.25;12.15;;;10.30;99.90;;;;;;5080029;28;20722;-79
2022/04/29 04:00:07;;;;;;;16.85;11.10;;;10.40;99.90;;;;;;5065725;28;20262;-85
2022/04/29 04:03:05;;;;;;;17.77;11.73;;;10.40;99.90;;;;;;5066934;28;20709;-79
2022/04/29 04:09:03;;;;;;;14.75;10.90;;;10.30;99.90;;;;;;5071383;28;20227;-79
2022/04/29 04:11:52;;;;;;;16.27;10.48;;;10.30;99.90;;;;;;5067137;28;20231;-83
2022/04/29 04:15:03;;;;;;;15.95;10.82;;;10.30;99.90;;;;;;5064441;28;20215;-85
2022/04/29 04:17:59;;;;;;;17.40;10.77;;;10.30;99.90;;;;;;5070922;28;20243;-83
2022/04/29 04:20:49;;;;;;;16.75;11.50;;;10.30;99.90;;;;;;5071796;28;20251;-84
2022/04/29 04:23:38;;;;;;;17.15;11.27;;;10.30;99.90;;;;;;5087136;28;20216;-82
2022/04/29 04:26:28;;;;;;;17.98;10.98;;;10.30;99.90;;;;;;5075915;28;20224;-83
2022/04/29 04:29:20;;;;;;;17.40;11.10;;;10.30;99.90;;;;;;5085878;28;20274;-83
2022/04/29 04:32:12;;;;;;;17.05;11.82;;;10.40;99.90;;;;;;5080267;28;20691;-84
2022/04/29 04:35:02;;;;;;;17.13;11.98;;;10.40;99.90;;;;;;5088030;28;20297;-82
2022/04/29 04:37:52;;;;;;;16.65;11.10;;;10.40;99.90;;;;;;5105039;28;20245;-84
2022/04/29 04:40:55;;;;;;;18.30;11.43;;;10.40;99.90;;;;;;5092230;28;20222;-82
2022/04/29 04:43:45;;;;;;;17.85;12.02;;;10.50;99.90;;;;;;5079370;28;20224;-80
2022/04/29 04:46:34;;;;;;;21.92;11.80;;;10.50;99.90;;;;;;5064166;28;20250;-81
2022/04/29 04:49:36;;;;;;;18.13;11.63;;;10.50;99.90;;;;;;5080349;28;20438;-81
2022/04/29 04:52:45;;;;;;;18.83;11.00;;;10.60;99.90;;;;;;5061256;28;20215;-78
2022/04/29 04:55:34;;;;;;;16.75;11.65;;;10.60;99.90;;;;;;5060892;28;20404;-79
2022/04/29 04:58:23;;;;;;;21.63;11.38;;;10.60;99.90;;;;;;5065007;28;20236;-78
2022/04/29 05:01:12;;;;;;;17.88;11.60;;;10.60;99.90;;;;;;5063633;28;20374;-77
2022/04/29 05:04:19;;;;;;;20.75;11.05;;;10.60;99.90;;;;;;5069505;28;21754;-79
2022/04/29 05:07:44;;;;;;;17.85;11.30;;;10.70;99.90;;;;;;5027117;28;20560;-77
2022/04/29 05:10:33;;;;;;;21.25;12.10;;;10.70;99.90;;;;;;5065172;28;20220;-77
2022/04/29 05:13:22;;;;;;;18.70;11.57;;;10.60;99.90;;;;;;5077710;28;20232;-76
2022/04/29 05:16:12;;;;;;;22.63;12.05;;;10.60;99.90;;;;;;5069418;28;20230;-76
2022/04/29 05:19:20;;;;;;;16.92;12.15;;;10.70;99.90;;;;;;5067556;28;20220;-78
2022/04/29 05:22:09;;;;;;;19.08;11.70;;;10.70;99.90;;;;;;5068150;28;20277;-77
2022/04/29 05:24:59;;;;;;;23.40;12.05;;;10.60;99.90;;;;;;5066593;28;20224;-78
2022/04/29 05:28:14;;;;;;;15.25;11.57;;;10.70;99.90;;;;;;5066383;28;20285;-77
2022/04/29 05:31:35;;;;;;;21.25;12.20;;;10.90;99.90;;;;;;5065934;28;21919;-77
2022/04/29 05:35:04;;;;;;;19.75;11.40;;;10.90;99.90;;;;;;5025669;28;20451;-78
2022/04/29 05:38:11;;;;;;;20.13;12.48;;;11.00;99.90;;;;;;5023882;28;20230;-77
2022/04/29 05:44:08;;;;;;;25.50;13.13;;;11.00;99.90;;;;;;5065848;28;20535;-83
2022/04/29 05:46:58;;;;;;;24.83;12.32;;;11.10;99.90;;;;;;5065790;28;20227;-81
2022/04/29 05:49:47;;;;;;;20.73;12.27;;;11.20;99.90;;;;;;5073823;28;20224;-82
2022/04/29 05:52:36;;;;;;;21.85;12.43;;;11.30;99.90;;;;;;5065783;28;20215;-83
2022/04/29 05:55:26;;;;;;;24.50;13.18;;;11.40;99.90;;;;;;5066515;28;20239;-82
2022/04/29 05:58:36;;;;;;;20.63;12.88;;;11.40;99.90;;;;;;5058252;28;20243;-83
2022/04/29 06:01:57;;;;;;;24.73;13.70;;;11.60;99.90;;;;;;5071050;28;20216;-83
2022/04/29 06:04:56;;;;;;;25.40;13.43;;;11.70;99.90;;;;;;5082211;28;20216;-82
2022/04/29 06:07:45;;;;;;;24.63;13.23;;;11.80;99.90;;;;;;5067530;28;20236;-81
2022/04/29 06:10:42;;;;;;;20.92;13.25;;;11.90;99.90;;;;;;5081175;28;20590;-80
2022/04/29 06:13:31;;;;;;;25.30;13.45;;;12.10;99.90;;;;;;5083155;28;20315;-83
2022/04/29 06:16:56;;;;;;;20.00;13.05;;;12.20;99.90;;;;;;5062990;28;20631;-79
2022/04/29 06:20:04;;;;;;;20.75;12.68;;;12.30;99.90;;;;;;5076000;28;20231;-79
2022/04/29 06:23:02;;;;;;;23.13;12.43;;;12.40;99.90;;;;;;5067354;28;20684;-82
2022/04/29 06:25:54;;;;;;;23.23;13.77;;;12.70;99.90;;;;;;5058264;28;20314;-80
2022/04/29 06:28:44;;;;;;;23.38;12.98;;;12.70;99.90;;;;;;5065135;28;20232;-84
2022/04/29 06:31:34;;;;;;;21.15;12.68;;;12.60;99.90;;;;;;5062509;28;20279;-86
2022/04/29 06:34:43;;;;;;;19.45;11.88;;;12.50;99.90;;;;;;5063599;28;20223;-79
2022/04/29 06:37:32;;;;;;;21.02;12.88;;;12.90;99.90;;;;;;5061764;28;20232;-82
2022/04/29 06:40:41;;;;;;;21.30;13.32;;;12.60;99.90;;;;;;5065333;28;20208;-80
2022/04/29 06:43:30;;;;;;;22.55;11.73;;;12.70;99.90;;;;;;5065300;28;20301;-81
2022/04/29 06:46:38;;;;;;;17.30;11.88;;;12.50;99.90;;;;;;5066137;28;20228;-82
2022/04/29 06:50:10;;;;;;;30.98;12.57;;;12.70;99.90;;;;;;5055244;28;20227;-82
2022/04/29 06:53:18;;;;;;;28.05;15.20;;;12.90;99.90;;;;;;5061879;28;20216;-79
2022/04/29 06:56:08;;;;;;;27.92;14.73;;;12.30;99.90;;;;;;5057451;28;20299;-83
2022/04/29 06:58:57;;;;;;;22.67;14.57;;;12.40;99.90;;;;;;5065531;28;20231;-85
2022/04/29 07:01:48;;;;;;;25.17;12.75;;;13.00;99.90;;;;;;5068005;28;20232;-84
2022/04/29 07:04:38;;;;;;;28.52;13.52;;;13.90;99.90;;;;;;5059436;28;20289;-82
2022/04/29 07:07:29;;;;;;;26.92;13.63;;;13.80;99.90;;;;;;5075953;28;20218;-83
2022/04/29 07:10:32;;;;;;;21.83;12.70;;;13.90;99.90;;;;;;5068345;28;20228;-82
2022/04/29 07:14:00;;;;;;;28.70;14.23;;;13.90;99.90;;;;;;5088848;28;20204;-81
2022/04/29 07:16:55;;;;;;;30.48;15.02;;;14.00;99.90;;;;;;5086220;28;20224;-81
2022/04/29 07:20:06;;;;;;;26.50;14.60;;;14.10;99.90;;;;;;5069652;28;20824;-82
2022/04/29 07:22:58;;;;;;;25.05;13.45;;;13.60;99.90;;;;;;5075894;28;20227;-80
2022/04/29 07:25:47;;;;;;;30.58;13.05;;;14.40;99.90;;;;;;5069110;28;20578;-83
2022/04/29 07:28:35;;;;;;;26.02;14.07;;;14.90;99.90;;;;;;5062752;28;20694;-81
2022/04/29 07:31:25;;;;;;;24.58;13.13;;;14.50;99.90;;;;;;5079654;28;20675;-80
2022/04/29 07:41:45;;;;;;;30.80;14.30;;;14.50;99.90;;;;;;5025862;28;20221;-82
2022/04/29 07:44:37;;;;;;;25.98;14.23;;;14.90;99.90;;;;;;5068477;28;20601;-84
2022/04/29 07:47:30;;;;;;;31.83;14.27;;;14.50;99.90;;;;;;5068703;28;20251;-84
2022/04/29 07:50:25;;;;;;;28.55;14.27;;;14.10;99.90;;;;;;5062887;28;20329;-82
2022/04/29 07:53:18;;;;;;;29.55;14.55;;;13.90;99.90;;;;;;5064224;28;20220;-83
2022/04/29 07:56:07;;;;;;;23.35;14.20;;;14.10;99.90;;;;;;5080114;28;20230;-82
2022/04/29 07:58:59;;;;;;;25.83;15.50;;;14.00;99.90;;;;;;5066003;28;20220;-87
2022/04/29 08:01:48;;;;;;;26.10;14.65;;;13.50;99.90;;;;;;5081198;28;20212;-88
2022/04/29 08:04:37;;;;;;;25.17;14.70;;;13.60;99.90;;;;;;5079503;28;20227;-81
2022/04/29 08:07:26;;;;;;;30.30;14.65;;;13.80;99.90;;;;;;5069179;28;20278;-83
2022/04/29 08:10:17;;;;;;;23.52;14.00;;;16.40;99.90;;;;;;5081905;28;20451;-80
2022/04/29 08:13:06;;;;;;;25.27;14.75;;;17.40;99.90;;;;;;5081596;28;20262;-80
2022/04/29 08:16:14;;;;;;;31.45;14.88;;;17.40;99.90;;;;;;5072288;28;20308;-84
2022/04/29 08:19:19;;;;;;;23.98;14.07;;;20.50;97.80;;;;;;5079253;28;20359;-80
2022/04/29 08:22:36;;;;;;;17.52;13.25;;;22.20;91.40;;;;;;5064522;28;20628;-80
2022/04/29 08:25:26;;;;;;;21.95;13.50;;;23.50;75.50;;;;;;5060705;28;20565;-79
2022/04/29 08:28:15;;;;;;;29.35;13.85;;;23.80;73.00;;;;;;5080364;28;20222;-80
2022/04/29 08:31:05;;;;;;;22.70;14.32;;;24.10;74.00;;;;;;5067385;28;20940;-79
2022/04/29 08:34:12;;;;;;;28.08;14.43;;;25.30;68.30;;;;;;5072778;28;20279;-80
2022/04/29 08:37:03;;;;;;;23.25;14.15;;;25.30;65.60;;;;;;5060097;28;20288;-81
2022/04/29 08:39:56;;;;;;;15.93;13.13;;;25.20;64.00;;;;;;5067372;28;20262;-82
2022/04/29 08:42:46;;;;;;;22.38;13.35;;;24.00;65.80;;;;;;5065956;28;20220;-83
2022/04/29 08:45:38;;;;;;;29.05;14.23;;;25.90;63.00;;;;;;5071509;28;20323;-79
2022/04/29 08:49:06;;;;;;;20.42;13.88;;;25.70;61.30;;;;;;5063210;28;20220;-79
2022/04/29 08:51:56;;;;;;;24.42;13.30;;;24.90;63.60;;;;;;5064876;28;20216;-83
2022/04/29 09:01:04;;;;;;;15.38;13.07;;;27.30;57.80;;;;;;5075740;28;20224;-84
2022/04/29 09:03:54;;;;;;;17.65;14.18;;;26.80;56.10;;;;;;5067736;28;20293;-82
2022/04/29 09:06:49;;;;;;;17.50;13.25;;;21.70;63.90;;;;;;5079617;28;20223;-83
2022/04/29 09:09:39;;;;;;;21.08;13.90;;;21.80;66.00;;;;;;5071056;28;20212;-82
2022/04/29 09:12:28;;;;;;;21.02;13.80;;;19.40;70.80;;;;;;5071097;28;20253;-81
2022/04/29 09:15:18;;;;;;;19.77;13.25;;;19.00;72.70;;;;;;5083034;28;20220;-83
2022/04/29 09:18:07;;;;;;;26.20;13.18;;;18.80;74.40;;;;;;5074031;28;20208;-82
2022/04/29 09:20:56;;;;;;;19.75;13.75;;;23.80;65.30;;;;;;5072711;28;20692;-83
2022/04/29 09:23:47;;;;;;;19.73;13.55;;;20.20;67.00;;;;;;5089592;28;20230;-82
2022/04/29 09:27:00;;;;;;;21.35;13.25;;;18.00;73.70;;;;;;5069191;28;20259;-81
2022/04/29 09:30:09;;;;;;;25.25;13.63;;;16.80;79.40;;;;;;5071378;28;20216;-82
2022/04/29 09:33:30;;;;;;;20.38;13.13;;;17.00;80.80;;;;;;5068319;28;20575;-82
2022/04/29 09:36:51;;;;;;;22.00;14.00;;;17.90;78.30;;;;;;5065078;28;20220;-82
2022/04/29 09:39:50;;;;;;;25.73;14.38;;;17.80;78.50;;;;;;5073691;28;20227;-83
2022/04/29 09:42:39;;;;;;;22.77;13.32;;;17.50;79.30;;;;;;5075899;28;20223;-83
2022/04/29 09:45:32;;;;;;;18.42;13.18;;;17.00;80.60;;;;;;5085101;28;20223;-82
2022/04/29 09:48:21;;;;;;;22.40;13.65;;;16.40;81.40;;;;;;5077345;28;20227;-82
2022/04/29 09:51:13;;;;;;;19.02;13.77;;;16.40;82.90;;;;;;5084091;28;20228;-82
2022/04/29 09:54:09;;;;;;;19.42;12.88;;;16.10;83.20;;;;;;5068910;28;20298;-82
2022/04/29 09:57:07;;;;;;;20.42;13.48;;;16.30;82.40;;;;;;5074938;28;20837;-82
2022/04/29 09:59:57;;;;;;;23.55;13.32;;;16.40;82.20;;;;;;5082412;28;20245;-82
2022/04/29 10:02:49;;;;;;;17.80;13.25;;;16.40;82.80;;;;;;5074592;28;20274;-85
2022/04/29 10:05:44;;;;;;;25.05;14.38;;;16.50;83.00;;;;;;5085259;28;20761;-81
2022/04/29 10:08:35;;;;;;;16.02;13.10;;;16.40;84.50;;;;;;5067614;28;20693;-81
2022/04/29 10:11:25;;;;;;;22.17;14.65;;;16.50;84.20;;;;;;5072800;28;20208;-81
2022/04/29 10:14:17;;;;;;;18.33;13.55;;;16.00;86.30;;;;;;5065546;28;20231;-82
2022/04/29 10:23:49;;;;;;;20.65;12.23;;;17.20;84.50;;;;;;5019838;28;20212;-81
2022/04/29 10:26:38;;;;;;;17.92;12.75;;;17.50;81.10;;;;;;5059397;28;20235;-81
2022/04/29 10:29:27;;;;;;;17.90;12.10;;;17.20;81.90;;;;;;5064684;28;20212;-82
2022/04/29 10:32:16;;;;;;;19.73;12.45;;;17.20;81.00;;;;;;5064113;28;20224;-81
2022/04/29 10:35:40;;;;;;;22.92;12.77;;;17.10;81.00;;;;;;5068778;28;20216;-82
2022/04/29 10:38:32;;;;;;;21.08;12.52;;;16.60;82.80;;;;;;5071300;28;20231;-81
2022/04/29 10:41:23;;;;;;;18.15;12.18;;;16.50;84.00;;;;;;5071924;28;20236;-83
2022/04/29 10:44:12;;;;;;;18.70;12.43;;;16.70;83.20;;;;;;5066455;28;20232;-81
2022/04/29 10:47:24;;;;;;;15.80;12.20;;;17.00;82.30;;;;;;5076233;28;20811;-83
2022/04/29 10:50:39;;;;;;;16.13;11.98;;;20.10;79.70;;;;;;5056491;28;20223;-84
2022/04/29 10:53:48;;;;;;;16.75;12.15;;;24.40;67.10;;;;;;5068187;28;20228;-82
2022/04/29 10:57:06;;;;;;;17.05;12.85;;;24.80;61.20;;;;;;5065272;28;20219;-83
2022/04/29 10:59:57;;;;;;;20.23;13.02;;;23.20;61.50;;;;;;5080650;28;20216;-82
2022/04/29 11:02:46;;;;;;;15.10;12.02;;;21.60;63.80;;;;;;5076741;28;20235;-82
2022/04/29 11:05:37;;;;;;;14.85;11.80;;;20.90;66.50;;;;;;5077629;28;20754;-83
2022/04/29 11:08:30;;;;;;;18.27;12.50;;;20.80;67.70;;;;;;5062851;28;20263;-81
2022/04/29 11:11:43;;;;;;;23.52;12.88;;;23.60;63.20;;;;;;5078438;28;20310;-83
2022/04/29 11:15:15;;;;;;;14.93;13.35;;;26.00;59.80;;;;;;5067051;28;20215;-82
2022/04/29 11:18:28;;;;;;;16.05;12.80;;;25.70;57.80;;;;;;5063640;28;20223;-83
2022/04/29 11:24:43;;;;;;;18.67;13.05;;;22.30;60.40;;;;;;5060157;28;20341;-77
2022/04/29 11:27:52;;;;;;;23.08;15.25;;;20.50;64.80;;;;;;5064210;28;20220;-80
2022/04/29 11:31:10;;;;;;;17.27;12.50;;;19.60;68.60;;;;;;5072656;28;20302;-82
2022/04/29 11:34:06;;;;;;;16.23;12.20;;;19.30;70.40;;;;;;5083503;28;20226;-80
2022/04/29 11:36:58;;;;;;;17.83;12.32;;;18.60;70.90;;;;;;5074553;28;20216;-81
2022/04/29 11:39:48;;;;;;;13.93;10.68;;;17.50;73.60;;;;;;5077288;28;20232;-80
2022/04/29 11:42:37;;;;;;;14.20;8.77;;;17.50;73.80;;;;;;5089683;28;20216;-80
2022/04/29 11:45:26;;;;;;;8.98;8.02;;;17.70;70.30;;;;;;5067832;28;20232;-80
2022/04/29 11:48:21;;;;;;;10.05;8.45;;;17.70;69.50;;;;;;5074543;28;21013;-79
2022/04/29 11:51:15;;;;;;;10.82;9.10;;;17.80;69.90;;;;;;5073410;28;21113;-79
2022/04/29 11:54:05;;;;;;;18.00;10.63;;;17.50;69.80;;;;;;5065486;28;20223;-80
2022/04/29 11:56:54;;;;;;;16.20;10.27;;;17.00;72.40;;;;;;5064454;28;20883;-80
2022/04/29 11:59:43;;;;;;;14.40;9.82;;;17.80;73.20;;;;;;5068336;28;20247;-79
2022/04/29 12:02:32;;;;;;;12.15;10.73;;;19.00;70.70;;;;;;5077859;28;20219;-78
2022/04/29 12:05:25;;;;;;;15.43;10.77;;;19.00;70.00;;;;;;5067167;28;20223;-80
2022/04/29 12:08:14;;;;;;;14.55;10.02;;;18.30;73.10;;;;;;5081650;28;20226;-80
2022/04/29 12:11:09;;;;;;;14.57;9.52;;;17.50;77.60;;;;;;5076415;28;20212;-81
2022/04/29 12:14:15;;;;;;;19.15;10.25;;;17.90;78.20;;;;;;5071294;28;20212;-80
2022/04/29 12:17:05;;;;;;;17.80;9.80;;;18.00;78.10;;;;;;5068569;28;20219;-80
2022/04/29 12:19:57;;;;;;;12.52;9.25;;;17.60;79.60;;;;;;5068655;28;20220;-76
2022/04/29 12:22:49;;;;;;;14.23;9.75;;;17.10;80.90;;;;;;5060936;28;21097;-76
2022/04/29 12:25:42;;;;;;;13.70;10.43;;;16.90;82.10;;;;;;5066330;28;20568;-77
2022/04/29 12:28:34;;;;;;;14.25;10.05;;;17.00;83.10;;;;;;5073890;28;20216;-77
2022/04/29 12:35:05;;;;;;;15.68;11.10;;;17.10;80.40;;;;;;5068768;28;20693;-78
2022/04/29 12:37:56;;;;;;;13.52;9.82;;;16.70;81.50;;;;;;5064930;28;20325;-76
2022/04/29 12:41:32;;;;;;;14.55;9.65;;;16.70;79.90;;;;;;5061126;28;20590;-77
2022/04/29 12:47:24;;;;;;;15.57;9.23;;;16.30;79.70;;;;;;5068292;28;20224;-78
2022/04/29 12:50:18;;;;;;;16.17;10.02;;;16.60;80.80;;;;;;5058932;28;20228;-77
2022/04/29 12:53:09;;;;;;;16.45;10.00;;;16.30;81.70;;;;;;5063339;28;20890;-77
2022/04/29 12:55:58;;;;;;;15.20;9.95;;;16.20;83.00;;;;;;5063138;28;20220;-79
2022/04/29 12:58:50;;;;;;;16.92;10.07;;;16.60;84.50;;;;;;5060294;28;20544;-76
2022/04/29 13:01:41;;;;;;;16.10;10.70;;;16.40;87.10;;;;;;5071482;28;20255;-77
2022/04/29 13:04:46;;;;;;;15.25;10.30;;;16.60;85.70;;;;;;5075431;28;20329;-76
2022/04/29 13:07:43;;;;;;;11.90;9.40;;;16.40;85.10;;;;;;5066840;28;20227;-78
2022/04/29 13:10:42;;;;;;;10.77;8.93;;;16.30;87.40;;;;;;5065906;28;20255;-77
2022/04/29 13:13:30;;;;;;;14.15;10.07;;;16.10;90.70;;;;;;5067192;28;20216;-77
2022/04/29 13:16:22;;;;;;;15.52;10.95;;;16.10;90.30;;;;;;5066318;28;20224;-78
2022/04/29 13:19:12;;;;;;;15.98;10.23;;;16.20;90.40;;;;;;5072667;28;20220;-76
2022/04/29 13:22:01;;;;;;;13.85;9.52;;;16.70;90.10;;;;;;5082040;28;20238;-77
2022/04/29 13:24:55;;;;;;;12.32;9.35;;;16.50;88.60;;;;;;5063810;28;20228;-78
2022/04/29 13:27:46;;;;;;;16.08;9.40;;;15.80;89.10;;;;;;5073254;28;20224;-77
2022/04/29 13:30:35;;;;;;;15.00;9.60;;;15.80;90.30;;;;;;5062516;28;20224;-76
2022/04/29 13:33:24;;;;;;;13.60;9.10;;;15.70;90.10;;;;;;5070909;28;20221;-76
2022/04/29 13:36:14;;;;;;;15.43;8.90;;;15.90;88.50;;;;;;5061554;28;20220;-78
2022/04/29 13:39:03;;;;;;;14.55;9.65;;;16.00;87.90;;;;;;5069771;28;20213;-77
2022/04/29 13:41:57;;;;;;;19.98;10.18;;;16.00;88.40;;;;;;5066016;28;20255;-77
2022/04/29 13:44:47;;;;;;;11.68;9.15;;;16.10;88.00;;;;;;5076865;28;20303;-77
2022/04/29 13:47:36;;;;;;;15.13;10.13;;;16.00;88.70;;;;;;5064530;28;20226;-77
2022/04/29 13:50:25;;;;;;;11.65;9.38;;;15.60;90.50;;;;;;5067634;28;20220;-76
2022/04/29 13:53:14;;;;;;;15.65;8.95;;;15.50;90.20;;;;;;5068450;28;20223;-76
2022/04/29 13:56:04;;;;;;;14.55;9.77;;;15.80;90.10;;;;;;5065417;28;20219;-77
2022/04/29 13:58:52;;;;;;;13.52;9.48;;;15.80;88.70;;;;;;5058940;28;20216;-77
2022/04/29 14:01:42;;;;;;;15.30;9.38;;;16.00;88.00;;;;;;5058760;28;20236;-77
2022/04/29 14:04:33;;;;;;;12.00;9.73;;;15.70;88.00;;;;;;5061199;28;20936;-78
2022/04/29 14:07:22;;;;;;;14.40;9.60;;;15.80;88.70;;;;;;5055990;28;20220;-75
2022/04/29 14:10:12;;;;;;;13.45;9.23;;;15.80;88.20;;;;;;5057897;28;20220;-74
2022/04/29 14:13:01;;;;;;;13.68;8.80;;;15.60;88.20;;;;;;5060979;28;20216;-76
2022/04/29 14:15:50;;;;;;;14.82;9.27;;;15.80;88.00;;;;;;5060614;28;20251;-74
2022/04/29 14:18:40;;;;;;;10.88;8.82;;;15.90;86.60;;;;;;5070443;28;20389;-82
2022/04/29 14:21:29;;;;;;;13.20;9.57;;;16.00;86.30;;;;;;5060908;28;20220;-74
2022/04/29 14:24:18;;;;;;;13.38;8.65;;;15.90;84.10;;;;;;5060289;28;20354;-75
2022/04/29 14:27:07;;;;;;;11.48;8.55;;;16.20;83.90;;;;;;5063650;28;21241;-74
2022/04/29 14:29:55;;;;;;;11.32;9.13;;;16.30;82.90;;;;;;5063246;28;20360;-75
2022/04/29 14:32:45;;;;;;;13.85;8.80;;;16.00;83.20;;;;;;5060674;28;20220;-76
2022/04/29 14:35:35;;;;;;;13.18;8.60;;;16.20;82.50;;;;;;5066026;28;20327;-74
2022/04/29 14:38:24;;;;;;;11.50;8.63;;;16.30;81.60;;;;;;5078521;28;20286;-75
2022/04/29 14:41:13;;;;;;;13.13;8.57;;;16.20;82.40;;;;;;5074580;28;20295;-78
2022/04/29 14:44:02;;;;;;;13.35;8.30;;;16.30;81.10;;;;;;5068894;28;20310;-74
2022/04/29 14:46:51;;;;;;;12.68;8.52;;;16.10;81.60;;;;;;5068691;28;20219;-75
2022/04/29 14:49:40;;;;;;;10.02;8.02;;;16.20;81.30;;;;;;5064543;28;20219;-75
2022/04/29 14:52:31;;;;;;;14.95;8.10;;;16.40;80.60;;;;;;5061654;28;20224;-75
2022/04/29 14:55:21;;;;;;;12.70;8.15;;;16.40;80.40;;;;;;5061129;28;20224;-74
2022/04/29 14:58:09;;;;;;;12.23;7.93;;;16.40;81.30;;;;;;5064740;28;20228;-75
2022/04/29 15:00:58;;;;;;;10.05;7.88;;;16.60;81.20;;;;;;5070154;28;20615;-74
2022/04/29 15:03:47;;;;;;;14.68;8.15;;;16.60;80.50;;;;;;5062171;28;20291;-74
2022/04/29 15:06:36;;;;;;;11.07;8.10;;;16.50;80.80;;;;;;5066628;28;20227;-75
2022/04/29 15:15:50;;;;;;;11.75;7.68;;;16.10;81.90;;;;;;5068885;28;20234;-74
2022/04/29 15:18:41;;;;;;;11.63;7.50;;;15.90;81.20;;;;;;5076474;28;20224;-75
2022/04/29 15:21:30;;;;;;;10.15;7.32;;;16.20;81.00;;;;;;5062617;28;20231;-75
2022/04/29 15:24:19;;;;;;;11.88;8.07;;;16.30;80.60;;;;;;5064289;28;20301;-75
2022/04/29 15:27:09;;;;;;;12.25;7.18;;;16.00;80.80;;;;;;5062364;28;20223;-76
2022/04/29 15:29:58;;;;;;;12.65;7.30;;;16.00;80.90;;;;;;5064768;28;20591;-74